Time;durP1;ratioP1;P1;durP2;ratioP2;P2;SDS_P1;SDS_P2;PMS_P1;PMS_P2;Temp;Humidity;BMP_temperature;BMP_pressure;BME280_temperature;BME280_humidity;BME280_pressure;Samples;Min_cycle;Max_cycle;Signal;HPM_P1;HPM_P2
2023/05/25 00:02:03;;;;;;;7.73;3.10;;;9.20;90.10;;;;;;5008156;28;21021;-68
2023/05/25 00:04:33;;;;;;;4.80;3.47;;;9.30;89.30;;;;;;5007762;28;21233;-68
2023/05/25 00:07:01;;;;;;;8.77;3.77;;;9.30;88.20;;;;;;5004899;28;20575;-68
2023/05/25 00:09:29;;;;;;;7.87;3.77;;;9.40;86.80;;;;;;5006988;28;20465;-68
2023/05/25 00:11:58;;;;;;;9.73;4.00;;;9.50;86.20;;;;;;5008825;28;20547;-68
2023/05/25 00:14:26;;;;;;;10.83;3.40;;;9.60;85.10;;;;;;5009526;28;20446;-68
2023/05/25 00:16:55;;;;;;;8.70;3.70;;;9.70;84.80;;;;;;5009401;28;20492;-69
2023/05/25 00:19:23;;;;;;;12.30;4.63;;;9.60;84.40;;;;;;5010300;28;20442;-69
2023/05/25 00:21:51;;;;;;;6.77;4.67;;;9.70;84.10;;;;;;5010272;28;21054;-72
2023/05/25 00:24:20;;;;;;;7.90;3.60;;;9.70;84.00;;;;;;5009493;28;20442;-69
2023/05/25 00:26:47;;;;;;;8.87;3.83;;;9.70;83.80;;;;;;5008363;28;20965;-68
2023/05/25 00:29:15;;;;;;;12.27;4.10;;;9.70;83.60;;;;;;5009841;28;20473;-69
2023/05/25 00:31:43;;;;;;;8.90;4.10;;;9.70;84.10;;;;;;5010762;28;20822;-68
2023/05/25 00:34:13;;;;;;;7.60;4.20;;;9.80;83.30;;;;;;5010161;28;20469;-68
2023/05/25 00:36:42;;;;;;;9.10;3.73;;;9.80;83.20;;;;;;5010085;28;20483;-68
2023/05/25 00:39:10;;;;;;;7.10;3.57;;;9.90;83.20;;;;;;5010373;28;20453;-68
2023/05/25 00:41:40;;;;;;;10.93;4.60;;;9.90;83.00;;;;;;5010264;28;20446;-68
2023/05/25 00:44:08;;;;;;;7.87;4.30;;;9.90;83.00;;;;;;5010386;28;20442;-69
2023/05/25 00:46:37;;;;;;;7.00;3.73;;;9.90;84.00;;;;;;5010323;28;20879;-68
2023/05/25 00:49:05;;;;;;;7.63;3.70;;;9.90;84.80;;;;;;5010526;28;20469;-68
2023/05/25 00:51:35;;;;;;;11.60;4.30;;;9.90;85.20;;;;;;5010221;28;20506;-68
2023/05/25 00:54:03;;;;;;;11.87;5.83;;;9.90;84.60;;;;;;5010030;28;20872;-68
2023/05/25 00:56:35;;;;;;;6.80;4.07;;;9.90;85.00;;;;;;5010557;28;20479;-70
2023/05/25 00:59:06;;;;;;;5.67;4.30;;;9.90;85.00;;;;;;5009859;28;20542;-68
2023/05/25 01:01:38;;;;;;;9.00;4.13;;;9.80;85.70;;;;;;5010419;28;20557;-69
2023/05/25 01:04:08;;;;;;;7.87;4.63;;;9.80;85.70;;;;;;5009616;28;20455;-69
2023/05/25 01:06:42;;;;;;;7.00;4.67;;;9.70;86.40;;;;;;5010650;28;20523;-70
2023/05/25 01:09:13;;;;;;;13.33;4.87;;;9.70;87.40;;;;;;5010457;28;20537;-69
2023/05/25 01:11:44;;;;;;;5.73;4.47;;;9.60;87.30;;;;;;5010057;28;20890;-69
2023/05/25 01:14:12;;;;;;;9.43;3.43;;;9.60;87.80;;;;;;5009583;28;20447;-69
2023/05/25 01:16:42;;;;;;;13.07;5.00;;;9.50;87.10;;;;;;5009241;28;20477;-69
2023/05/25 01:19:10;;;;;;;9.20;3.70;;;9.50;87.10;;;;;;5010650;28;20437;-69
2023/05/25 01:21:48;;;;;;;8.37;4.00;;;9.50;87.40;;;;;;5010158;28;20443;-69
2023/05/25 01:24:22;;;;;;;8.70;4.37;;;9.50;87.20;;;;;;5009972;28;21155;-68
2023/05/25 01:26:57;;;;;;;7.37;4.47;;;9.50;87.40;;;;;;5009529;28;20438;-69
2023/05/25 01:29:28;;;;;;;8.13;4.90;;;9.50;87.90;;;;;;5009699;28;20457;-69
2023/05/25 01:31:57;;;;;;;12.63;4.77;;;9.40;87.10;;;;;;5012421;28;20537;-68
2023/05/25 01:34:26;;;;;;;5.43;3.60;;;9.50;87.40;;;;;;5013045;28;20439;-69
2023/05/25 01:36:56;;;;;;;8.17;3.90;;;9.40;87.10;;;;;;5013424;28;20477;-68
2023/05/25 01:39:24;;;;;;;7.93;4.20;;;9.40;87.40;;;;;;5013282;28;20439;-69
2023/05/25 01:41:52;;;;;;;6.53;3.50;;;9.40;87.10;;;;;;5013443;28;20528;-69
2023/05/25 01:44:20;;;;;;;12.00;4.43;;;9.40;87.00;;;;;;5013129;28;20470;-68
2023/05/25 01:46:53;;;;;;;11.10;3.90;;;9.40;87.00;;;;;;5013305;28;20483;-68
2023/05/25 01:49:26;;;;;;;9.97;4.53;;;9.30;86.70;;;;;;5013303;28;20479;-69
2023/05/25 01:52:04;;;;;;;11.00;4.20;;;9.30;87.20;;;;;;5013266;28;20435;-69
2023/05/25 01:54:38;;;;;;;10.20;5.47;;;9.30;87.20;;;;;;5012970;28;20447;-68
2023/05/25 01:57:09;;;;;;;12.17;5.10;;;9.20;87.60;;;;;;5012821;28;20481;-68
2023/05/25 01:59:38;;;;;;;11.60;4.50;;;9.20;88.20;;;;;;5013249;28;20442;-69
2023/05/25 02:02:07;;;;;;;7.90;4.37;;;9.10;90.10;;;;;;5011649;28;20991;-68
2023/05/25 02:04:36;;;;;;;7.07;4.53;;;9.10;90.50;;;;;;5012037;28;20442;-68
2023/05/25 02:07:05;;;;;;;7.50;5.80;;;8.90;93.70;;;;;;5012653;28;20524;-68
2023/05/25 02:09:33;;;;;;;8.53;4.63;;;8.80;93.80;;;;;;5012629;28;20441;-68
2023/05/25 02:12:02;;;;;;;7.80;4.87;;;8.70;91.50;;;;;;5012749;28;20892;-68
2023/05/25 02:14:30;;;;;;;9.30;4.17;;;8.50;91.70;;;;;;5012119;28;20816;-68
2023/05/25 02:17:00;;;;;;;7.37;4.50;;;8.60;91.60;;;;;;5012349;28;20536;-68
2023/05/25 02:19:29;;;;;;;11.50;4.87;;;8.60;91.30;;;;;;5012590;28;20438;-68
2023/05/25 02:21:57;;;;;;;10.60;5.13;;;8.60;91.10;;;;;;5012618;28;20474;-68
2023/05/25 02:24:26;;;;;;;11.33;4.93;;;8.70;91.00;;;;;;5012139;28;20442;-69
2023/05/25 02:26:54;;;;;;;19.57;5.23;;;8.70;90.80;;;;;;5012196;28;20972;-68
2023/05/25 02:29:22;;;;;;;8.33;4.40;;;8.70;90.80;;;;;;5012437;28;20434;-68
2023/05/25 02:31:50;;;;;;;8.60;4.23;;;8.70;90.70;;;;;;5012094;28;20520;-68
2023/05/25 02:34:18;;;;;;;8.13;4.50;;;8.70;90.80;;;;;;5012103;28;20503;-68
2023/05/25 02:36:46;;;;;;;10.60;4.60;;;8.60;91.10;;;;;;5011782;28;20474;-69
2023/05/25 02:39:14;;;;;;;11.17;4.90;;;8.50;90.90;;;;;;5012068;28;20448;-68
2023/05/25 02:41:43;;;;;;;12.70;4.80;;;8.60;90.70;;;;;;5011813;28;20500;-69
2023/05/25 02:44:12;;;;;;;11.77;5.07;;;8.70;90.20;;;;;;5011597;28;20868;-68
2023/05/25 02:46:40;;;;;;;9.80;4.27;;;8.80;90.20;;;;;;5012368;28;20450;-68
2023/05/25 02:49:08;;;;;;;8.00;5.20;;;8.80;90.30;;;;;;5011644;28;20545;-68
2023/05/25 02:51:36;;;;;;;12.33;5.07;;;8.70;90.20;;;;;;5012098;28;20438;-68
2023/05/25 02:54:04;;;;;;;9.30;4.53;;;8.70;90.60;;;;;;5011411;28;20821;-68
2023/05/25 02:56:32;;;;;;;8.10;4.23;;;8.60;90.70;;;;;;5012137;28;20507;-68
2023/05/25 02:59:01;;;;;;;9.80;5.23;;;8.60;90.90;;;;;;5011908;28;20489;-69
2023/05/25 03:01:29;;;;;;;10.23;6.00;;;8.50;90.90;;;;;;5011681;28;20493;-69
2023/05/25 03:03:58;;;;;;;9.70;5.23;;;8.50;91.30;;;;;;5011647;28;20993;-68
2023/05/25 03:06:26;;;;;;;10.53;5.43;;;8.50;91.70;;;;;;5011509;28;20454;-69
2023/05/25 03:08:54;;;;;;;10.10;5.00;;;8.40;91.50;;;;;;5012040;28;20466;-69
2023/05/25 03:11:22;;;;;;;9.63;4.63;;;8.30;91.70;;;;;;5011466;28;20556;-68
2023/05/25 03:13:50;;;;;;;8.40;4.70;;;8.30;92.00;;;;;;5011319;28;20496;-69
2023/05/25 03:16:21;;;;;;;6.60;5.57;;;8.20;92.00;;;;;;5011784;28;20531;-68
2023/05/25 03:18:50;;;;;;;14.57;8.50;;;8.30;91.90;;;;;;5010972;28;20863;-69
2023/05/25 03:21:18;;;;;;;10.10;6.93;;;8.30;92.20;;;;;;5011365;28;20479;-68
2023/05/25 03:23:46;;;;;;;10.30;4.93;;;8.20;92.20;;;;;;5010673;28;20948;-69
2023/05/25 03:26:14;;;;;;;9.77;5.80;;;8.20;92.40;;;;;;5011340;28;20956;-69
2023/05/25 03:28:42;;;;;;;7.57;5.40;;;8.20;92.50;;;;;;5011172;28;21107;-68
2023/05/25 03:31:11;;;;;;;8.20;5.23;;;8.20;92.60;;;;;;5011212;28;20539;-68
2023/05/25 03:33:40;;;;;;;8.67;6.03;;;8.10;93.30;;;;;;5011015;28;20488;-68
2023/05/25 03:36:08;;;;;;;8.00;4.90;;;8.10;95.60;;;;;;5010673;28;20477;-68
2023/05/25 03:38:37;;;;;;;9.93;6.17;;;8.00;95.60;;;;;;5011423;28;20585;-68
2023/05/25 03:41:05;;;;;;;8.90;5.30;;;7.90;96.50;;;;;;5011178;28;20550;-68
2023/05/25 03:43:34;;;;;;;11.93;5.50;;;7.70;97.00;;;;;;5010825;28;20483;-68
2023/05/25 03:46:02;;;;;;;11.53;5.33;;;7.70;95.00;;;;;;5011064;28;20446;-67
2023/05/25 03:48:30;;;;;;;10.63;5.90;;;7.70;94.80;;;;;;5010763;28;20464;-68
2023/05/25 03:50:59;;;;;;;11.77;6.30;;;7.70;94.70;;;;;;5010896;28;20445;-68
2023/05/25 03:53:27;;;;;;;11.90;6.27;;;7.70;95.20;;;;;;5009633;28;20448;-69
2023/05/25 03:55:55;;;;;;;10.20;6.10;;;7.80;94.40;;;;;;5010767;28;20441;-68
2023/05/25 03:58:23;;;;;;;10.10;5.20;;;8.00;94.10;;;;;;5010434;28;20487;-68
2023/05/25 04:00:51;;;;;;;13.80;6.13;;;8.00;94.20;;;;;;5010776;28;20478;-69
2023/05/25 04:03:20;;;;;;;9.17;5.97;;;8.00;94.80;;;;;;5010213;28;20493;-68
2023/05/25 04:05:48;;;;;;;10.40;5.53;;;7.90;95.40;;;;;;5010580;28;20591;-69
2023/05/25 04:08:19;;;;;;;9.83;5.50;;;7.90;96.30;;;;;;5010531;28;21273;-69
2023/05/25 04:10:47;;;;;;;12.30;5.60;;;7.80;95.80;;;;;;5010425;28;20452;-69
2023/05/25 04:13:15;;;;;;;12.53;7.53;;;7.90;97.70;;;;;;5010505;28;20448;-69
2023/05/25 04:15:43;;;;;;;8.73;5.97;;;7.90;98.20;;;;;;5010289;28;20535;-68
2023/05/25 04:18:12;;;;;;;12.27;5.87;;;8.00;97.30;;;;;;5010478;28;20479;-69
2023/05/25 04:20:40;;;;;;;14.00;5.57;;;7.90;97.00;;;;;;5010507;28;20457;-69
2023/05/25 04:23:08;;;;;;;10.13;5.40;;;8.00;98.10;;;;;;5010040;28;20448;-68
2023/05/25 04:25:37;;;;;;;11.30;4.93;;;8.10;97.70;;;;;;5010412;28;20443;-69
2023/05/25 04:28:07;;;;;;;9.73;6.73;;;8.20;98.00;;;;;;5009962;28;20563;-69
2023/05/25 04:30:35;;;;;;;12.00;5.73;;;8.20;95.50;;;;;;5010747;28;20442;-68
2023/05/25 04:33:03;;;;;;;12.20;6.20;;;8.30;95.20;;;;;;5010602;28;20488;-68
2023/05/25 04:35:31;;;;;;;12.37;6.00;;;8.40;94.80;;;;;;5010675;28;20444;-68
2023/05/25 04:38:01;;;;;;;16.23;7.13;;;8.60;94.50;;;;;;5010153;28;20486;-68
2023/05/25 04:40:31;;;;;;;11.37;5.80;;;8.70;94.00;;;;;;5009901;28;20446;-68
2023/05/25 04:43:02;;;;;;;10.23;4.70;;;8.80;93.80;;;;;;5009799;28;20497;-69
2023/05/25 04:45:32;;;;;;;10.03;4.97;;;8.90;93.50;;;;;;5009866;28;20949;-69
2023/05/25 04:48:00;;;;;;;10.57;6.33;;;9.00;93.40;;;;;;5010158;28;20873;-69
2023/05/25 04:50:28;;;;;;;8.57;6.43;;;9.00;93.70;;;;;;5009857;28;20447;-68
2023/05/25 04:52:57;;;;;;;13.77;5.90;;;9.10;94.00;;;;;;5009727;28;21014;-69
2023/05/25 04:55:25;;;;;;;9.20;5.67;;;9.10;93.90;;;;;;5009987;28;20490;-68
2023/05/25 04:57:53;;;;;;;7.10;4.93;;;9.20;93.30;;;;;;5009741;28;20893;-69
2023/05/25 05:00:23;;;;;;;10.73;5.27;;;9.30;93.40;;;;;;5010125;28;20452;-68
2023/05/25 05:02:52;;;;;;;8.77;5.40;;;9.30;92.90;;;;;;5009377;28;20438;-68
2023/05/25 05:05:20;;;;;;;16.47;5.87;;;9.50;92.20;;;;;;5011722;28;20459;-68
2023/05/25 05:07:48;;;;;;;8.43;5.03;;;9.60;92.20;;;;;;5013865;28;20474;-68
2023/05/25 05:10:17;;;;;;;9.00;5.43;;;9.80;91.50;;;;;;5013902;28;20449;-68
2023/05/25 05:12:44;;;;;;;10.73;5.77;;;9.90;90.50;;;;;;5014282;28;20441;-67
2023/05/25 05:15:12;;;;;;;15.70;5.60;;;10.00;90.10;;;;;;5013438;28;21010;-68
2023/05/25 05:17:42;;;;;;;9.67;4.97;;;10.00;90.20;;;;;;5013724;28;20519;-68
2023/05/25 05:20:10;;;;;;;11.97;5.90;;;10.10;90.30;;;;;;5012998;28;20473;-68
2023/05/25 05:22:38;;;;;;;10.30;5.33;;;10.10;88.90;;;;;;5013395;28;20447;-68
2023/05/25 05:25:07;;;;;;;10.27;5.17;;;10.20;88.20;;;;;;5013792;28;20442;-68
2023/05/25 05:27:35;;;;;;;14.93;6.47;;;10.20;88.10;;;;;;5013374;28;20467;-68
2023/05/25 05:30:04;;;;;;;8.83;6.13;;;10.30;88.30;;;;;;5012930;28;20491;-68
2023/05/25 05:32:34;;;;;;;13.03;5.33;;;10.30;87.80;;;;;;5013390;28;20440;-69
2023/05/25 05:35:05;;;;;;;10.40;6.20;;;10.40;89.10;;;;;;5013882;28;20527;-69
2023/05/25 05:37:35;;;;;;;9.93;5.80;;;10.40;89.80;;;;;;5013693;28;20518;-68
2023/05/25 05:40:04;;;;;;;12.00;6.20;;;10.50;87.60;;;;;;5013895;28;20482;-68
2023/05/25 05:42:32;;;;;;;12.30;6.20;;;10.50;87.60;;;;;;5013392;28;20479;-69
2023/05/25 05:45:00;;;;;;;12.00;6.80;;;10.60;85.90;;;;;;5013533;28;20961;-69
2023/05/25 05:47:28;;;;;;;9.80;5.77;;;10.60;85.50;;;;;;5013247;28;20472;-69
2023/05/25 05:49:56;;;;;;;14.73;7.43;;;10.60;87.40;;;;;;5013514;28;20501;-69
2023/05/25 05:52:25;;;;;;;12.23;6.20;;;10.70;87.30;;;;;;5013374;28;20938;-68
2023/05/25 05:54:53;;;;;;;15.93;6.83;;;10.80;87.00;;;;;;5013082;28;21010;-69
2023/05/25 05:57:21;;;;;;;18.33;6.43;;;10.90;87.30;;;;;;5013330;28;20456;-70
2023/05/25 05:59:49;;;;;;;11.47;6.00;;;10.90;86.50;;;;;;5012843;28;20490;-70
2023/05/25 06:02:17;;;;;;;10.83;5.90;;;11.00;86.90;;;;;;5012850;28;20452;-69
2023/05/25 06:04:45;;;;;;;11.93;6.90;;;11.10;86.40;;;;;;5004828;28;20552;-69
2023/05/25 06:07:13;;;;;;;11.50;6.13;;;11.10;84.80;;;;;;5010945;28;20596;-69
2023/05/25 06:09:42;;;;;;;9.93;6.80;;;11.20;85.80;;;;;;5011510;28;20449;-68
2023/05/25 06:12:10;;;;;;;17.97;6.80;;;11.30;84.80;;;;;;5011091;28;20487;-69
2023/05/25 06:14:38;;;;;;;12.60;6.13;;;11.40;85.10;;;;;;5010990;28;20430;-70
2023/05/25 06:17:06;;;;;;;7.83;7.07;;;11.40;84.20;;;;;;5009989;28;20461;-69
2023/05/25 06:19:34;;;;;;;12.60;6.27;;;11.60;85.20;;;;;;5011193;28;20477;-69
2023/05/25 06:22:02;;;;;;;13.50;5.83;;;11.70;85.60;;;;;;5001995;28;21105;-68
2023/05/25 06:24:30;;;;;;;10.00;7.10;;;11.80;84.40;;;;;;4999617;28;20503;-68
2023/05/25 06:27:01;;;;;;;9.97;5.83;;;11.90;83.70;;;;;;5002413;28;20442;-67
2023/05/25 06:29:29;;;;;;;11.70;6.70;;;11.90;84.30;;;;;;5010726;28;20469;-67
2023/05/25 06:31:57;;;;;;;9.03;6.17;;;11.90;84.20;;;;;;5010951;28;21264;-66
2023/05/25 06:34:25;;;;;;;12.30;6.90;;;12.00;82.90;;;;;;5010449;28;20866;-68
2023/05/25 06:36:53;;;;;;;9.83;6.30;;;12.10;83.00;;;;;;5010524;28;20940;-68
2023/05/25 06:39:21;;;;;;;13.97;7.10;;;12.20;81.20;;;;;;5010773;28;20485;-69
2023/05/25 06:41:50;;;;;;;7.77;5.67;;;12.30;82.10;;;;;;5010805;28;21049;-69
2023/05/25 06:44:19;;;;;;;15.63;7.00;;;12.30;81.60;;;;;;5010716;28;20454;-69
2023/05/25 06:46:47;;;;;;;17.30;6.70;;;12.50;81.60;;;;;;5010399;28;20454;-68
2023/05/25 06:49:15;;;;;;;13.10;6.53;;;12.70;80.90;;;;;;5010215;28;20519;-69
2023/05/25 06:51:43;;;;;;;9.47;5.90;;;12.80;80.80;;;;;;5006524;28;20471;-67
2023/05/25 06:54:13;;;;;;;19.00;7.10;;;12.80;79.90;;;;;;5004152;28;20489;-68
2023/05/25 06:56:41;;;;;;;12.93;7.23;;;12.90;80.60;;;;;;5010315;28;20478;-68
2023/05/25 06:59:09;;;;;;;11.33;6.97;;;13.10;77.90;;;;;;5009336;28;20510;-69
2023/05/25 07:01:39;;;;;;;15.03;6.40;;;13.40;78.30;;;;;;5011016;28;20873;-70
2023/05/25 07:04:07;;;;;;;13.20;6.87;;;13.80;79.40;;;;;;5009775;28;20445;-68
2023/05/25 07:06:35;;;;;;;9.00;6.20;;;13.90;76.50;;;;;;5011047;28;20855;-69
2023/05/25 07:09:03;;;;;;;10.83;6.53;;;13.90;75.10;;;;;;5011991;28;20471;-71
2023/05/25 07:11:31;;;;;;;10.40;6.30;;;14.00;74.50;;;;;;5011832;28;20445;-72
2023/05/25 07:13:59;;;;;;;12.73;7.40;;;14.00;74.70;;;;;;5010420;28;20948;-69
2023/05/25 07:16:27;;;;;;;15.23;6.70;;;14.00;73.80;;;;;;5011549;28;20452;-69
2023/05/25 07:18:57;;;;;;;7.67;6.10;;;14.00;74.30;;;;;;5011685;28;20461;-69
2023/05/25 07:21:27;;;;;;;15.90;7.30;;;14.00;73.70;;;;;;5011519;28;20460;-71
2023/05/25 07:23:55;;;;;;;12.77;8.53;;;13.90;74.60;;;;;;5011225;28;20548;-70
2023/05/25 07:26:24;;;;;;;12.00;6.80;;;14.00;74.40;;;;;;5011352;28;20445;-69
2023/05/25 07:28:52;;;;;;;17.03;7.77;;;14.10;74.50;;;;;;5011590;28;20500;-69
2023/05/25 07:31:21;;;;;;;10.50;6.70;;;14.20;75.60;;;;;;5011678;28;20960;-70
2023/05/25 07:33:49;;;;;;;11.67;6.43;;;14.50;74.90;;;;;;5010802;28;20798;-70
2023/05/25 07:36:19;;;;;;;14.07;7.20;;;14.80;74.60;;;;;;5011621;28;20508;-71
2023/05/25 07:38:47;;;;;;;17.77;7.80;;;14.90;73.30;;;;;;5011445;28;20465;-70
2023/05/25 07:41:15;;;;;;;11.27;7.10;;;14.60;72.70;;;;;;5011335;28;20490;-69
2023/05/25 07:43:43;;;;;;;9.67;6.53;;;14.60;72.80;;;;;;5010875;28;20442;-70
2023/05/25 07:46:11;;;;;;;9.77;6.90;;;14.60;73.90;;;;;;5011224;28;20534;-71
2023/05/25 07:48:39;;;;;;;11.10;7.20;;;14.60;72.00;;;;;;5010944;28;20466;-71
2023/05/25 07:51:07;;;;;;;12.50;7.60;;;14.60;73.00;;;;;;5011035;28;20451;-69
2023/05/25 07:53:37;;;;;;;13.13;7.83;;;14.70;72.70;;;;;;5010776;28;20485;-69
2023/05/25 07:56:05;;;;;;;11.50;7.73;;;14.80;73.50;;;;;;5010725;28;20543;-70
2023/05/25 07:58:37;;;;;;;11.67;7.50;;;14.90;71.30;;;;;;5010817;28;20469;-70
2023/05/25 08:01:05;;;;;;;13.53;8.23;;;15.00;71.10;;;;;;5010829;28;20480;-69
2023/05/25 08:03:33;;;;;;;9.50;7.20;;;15.30;72.90;;;;;;5010805;28;20437;-70
2023/05/25 08:06:16;;;;;;;12.37;7.77;;;15.50;69.90;;;;;;5010697;28;20439;-69
2023/05/25 08:08:46;;;;;;;11.43;7.27;;;15.70;69.60;;;;;;5010372;28;20488;-70
2023/05/25 08:11:16;;;;;;;10.37;7.27;;;15.80;70.10;;;;;;5005028;28;20442;-70
2023/05/25 08:13:47;;;;;;;8.07;7.20;;;16.00;70.50;;;;;;5006501;28;20497;-70
2023/05/25 08:16:15;;;;;;;11.03;7.27;;;16.40;69.60;;;;;;5006968;28;20822;-71
2023/05/25 08:18:45;;;;;;;10.63;6.60;;;16.70;65.40;;;;;;5006679;28;20466;-70
2023/05/25 08:21:14;;;;;;;12.37;7.47;;;16.80;69.70;;;;;;5006865;28;20569;-71
2023/05/25 08:23:42;;;;;;;9.70;7.70;;;16.70;68.90;;;;;;5006900;28;20458;-71
2023/05/25 08:26:12;;;;;;;15.13;8.43;;;16.40;67.90;;;;;;5009703;28;20494;-71
2023/05/25 08:29:01;;;;;;;11.43;7.73;;;16.00;69.00;;;;;;5011249;28;20541;-71
2023/05/25 08:31:29;;;;;;;13.13;7.80;;;15.70;70.60;;;;;;5007541;28;20968;-71
2023/05/25 08:33:57;;;;;;;10.20;7.37;;;15.70;72.90;;;;;;5007191;28;21031;-71
2023/05/25 08:36:26;;;;;;;11.47;7.50;;;16.30;71.50;;;;;;5006871;28;21003;-70
2023/05/25 08:38:54;;;;;;;9.97;6.80;;;17.10;69.40;;;;;;5007048;28;20465;-72
2023/05/25 08:41:23;;;;;;;12.83;7.43;;;17.80;67.70;;;;;;5006938;28;20505;-70
2023/05/25 08:43:52;;;;;;;11.90;7.17;;;18.30;64.10;;;;;;5006123;28;20533;-71
2023/05/25 08:46:29;;;;;;;10.00;6.90;;;18.30;65.00;;;;;;5006015;28;20485;-73
2023/05/25 08:49:04;;;;;;;10.53;7.67;;;18.60;67.80;;;;;;5005677;28;20500;-71
2023/05/25 08:51:36;;;;;;;12.07;8.07;;;18.90;62.90;;;;;;5005383;28;20484;-74
2023/05/25 08:54:08;;;;;;;11.37;7.23;;;18.40;62.70;;;;;;5005702;28;20512;-72
2023/05/25 08:56:44;;;;;;;11.70;7.17;;;18.00;63.30;;;;;;5008190;28;20975;-72
2023/05/25 08:59:23;;;;;;;15.63;8.47;;;17.60;64.20;;;;;;5007028;28;20999;-70
2023/05/25 09:01:56;;;;;;;12.83;8.00;;;17.50;65.40;;;;;;5009551;28;21076;-74
2023/05/25 09:04:25;;;;;;;10.40;7.93;;;17.90;70.60;;;;;;5008556;28;20461;-75
2023/05/25 09:06:54;;;;;;;12.37;9.80;;;18.30;64.00;;;;;;5011509;28;20477;-72
2023/05/25 09:09:38;;;;;;;15.33;7.80;;;18.10;64.00;;;;;;5010219;28;20449;-73
2023/05/25 09:12:09;;;;;;;9.43;7.27;;;18.00;64.00;;;;;;5009882;28;20446;-72
2023/05/25 09:14:44;;;;;;;13.07;8.30;;;18.30;65.60;;;;;;5009776;28;20442;-71
2023/05/25 09:17:12;;;;;;;12.03;7.00;;;18.80;63.70;;;;;;5001149;28;20468;-72
2023/05/25 09:19:40;;;;;;;10.90;8.10;;;19.00;61.80;;;;;;5009753;28;20439;-73
2023/05/25 09:22:10;;;;;;;12.40;7.83;;;18.70;61.30;;;;;;5009721;28;20486;-71
2023/05/25 09:24:43;;;;;;;8.70;6.90;;;18.60;61.40;;;;;;4996251;28;20524;-71
2023/05/25 09:27:17;;;;;;;11.33;6.70;;;18.40;63.60;;;;;;4990040;28;20569;-72
2023/05/25 09:29:48;;;;;;;15.07;7.63;;;18.30;64.10;;;;;;5000263;28;20449;-71
2023/05/25 09:32:16;;;;;;;9.27;7.90;;;18.10;62.40;;;;;;5010011;28;20973;-72
2023/05/25 09:34:44;;;;;;;10.90;7.50;;;17.90;64.80;;;;;;5009743;28;20449;-71
2023/05/25 09:37:14;;;;;;;13.43;7.63;;;17.90;66.60;;;;;;5010548;28;20958;-72
2023/05/25 09:39:42;;;;;;;13.30;7.03;;;18.10;66.10;;;;;;5010152;28;20553;-71
2023/05/25 09:42:13;;;;;;;12.37;6.90;;;18.60;65.60;;;;;;5009996;28;21014;-72
2023/05/25 09:44:41;;;;;;;12.67;7.50;;;19.00;61.70;;;;;;5010081;28;20450;-71
2023/05/25 09:47:12;;;;;;;10.90;7.50;;;19.40;62.80;;;;;;5009510;28;20462;-73
2023/05/25 09:49:41;;;;;;;11.47;7.33;;;19.90;61.40;;;;;;5010143;28;20448;-74
2023/05/25 09:52:09;;;;;;;12.97;7.60;;;20.60;59.60;;;;;;5010495;28;20441;-71
2023/05/25 09:54:38;;;;;;;12.43;7.23;;;20.40;57.70;;;;;;5013350;28;21023;-71
2023/05/25 09:57:06;;;;;;;10.87;6.97;;;20.80;57.80;;;;;;5013272;28;20470;-73
2023/05/25 09:59:36;;;;;;;10.10;7.57;;;21.30;59.60;;;;;;5013817;28;20520;-73
2023/05/25 10:02:04;;;;;;;11.73;7.67;;;21.60;55.60;;;;;;5013746;28;20513;-73
2023/05/25 10:04:32;;;;;;;11.47;8.03;;;21.60;57.00;;;;;;5013057;28;20442;-74
2023/05/25 10:07:01;;;;;;;10.93;7.37;;;21.70;56.10;;;;;;5012393;28;20450;-73
2023/05/25 10:09:30;;;;;;;10.80;7.70;;;21.00;58.60;;;;;;5013535;28;20466;-72
2023/05/25 10:12:00;;;;;;;11.30;7.13;;;20.70;56.90;;;;;;5013491;28;20533;-72
2023/05/25 10:14:29;;;;;;;15.40;7.17;;;20.70;57.80;;;;;;5013208;28;20469;-73
2023/05/25 10:17:01;;;;;;;11.33;7.70;;;21.20;57.90;;;;;;5012983;28;20869;-72
2023/05/25 10:19:35;;;;;;;10.40;7.30;;;21.70;56.90;;;;;;5013229;28;20441;-72
2023/05/25 10:22:08;;;;;;;14.83;8.90;;;21.50;56.80;;;;;;5022316;28;20487;-70
2023/05/25 10:24:45;;;;;;;8.70;6.73;;;20.70;56.60;;;;;;5014443;28;20442;-70
2023/05/25 10:27:18;;;;;;;9.07;6.50;;;21.10;56.70;;;;;;5012985;28;20543;-70
2023/05/25 10:29:57;;;;;;;7.70;5.83;;;21.50;56.50;;;;;;5009581;28;20528;-71
2023/05/25 10:32:29;;;;;;;10.53;7.00;;;22.10;59.40;;;;;;5000619;28;20457;-71
2023/05/25 10:34:58;;;;;;;9.73;7.93;;;21.80;55.10;;;;;;5003522;28;20466;-70
2023/05/25 10:37:27;;;;;;;10.87;7.00;;;20.90;56.00;;;;;;5002233;28;20561;-71
2023/05/25 10:39:57;;;;;;;8.87;6.43;;;21.20;58.70;;;;;;5001078;28;20446;-71
2023/05/25 10:42:28;;;;;;;8.73;6.23;;;22.40;57.90;;;;;;5002263;28;20532;-71
2023/05/25 10:44:57;;;;;;;9.47;6.70;;;23.80;56.80;;;;;;5003032;28;20442;-72
2023/05/25 10:47:27;;;;;;;10.57;6.07;;;24.60;53.10;;;;;;5002203;28;20498;-71
2023/05/25 10:49:57;;;;;;;7.27;6.53;;;24.60;52.00;;;;;;5001188;28;20515;-72
2023/05/25 10:52:27;;;;;;;11.93;7.57;;;24.60;51.00;;;;;;5002181;28;20857;-71
2023/05/25 10:54:58;;;;;;;8.80;6.77;;;24.90;53.60;;;;;;5003358;28;20442;-70
2023/05/25 10:57:26;;;;;;;8.27;6.83;;;23.60;50.90;;;;;;5002050;28;21001;-70
2023/05/25 11:00:00;;;;;;;10.07;7.57;;;23.10;54.60;;;;;;5001260;28;20443;-70
2023/05/25 11:02:30;;;;;;;8.40;7.17;;;22.60;54.20;;;;;;5000946;28;20481;-70
2023/05/25 11:05:33;;;;;;;9.50;7.17;;;21.70;53.10;;;;;;5000820;28;20431;-70
2023/05/25 11:08:02;;;;;;;8.00;7.20;;;21.10;55.70;;;;;;5001115;28;20460;-71
2023/05/25 11:10:55;;;;;;;11.70;7.97;;;20.90;56.90;;;;;;5000902;28;20437;-70
2023/05/25 11:13:37;;;;;;;10.90;7.00;;;20.70;55.80;;;;;;5000789;28;20805;-70
2023/05/25 11:16:16;;;;;;;10.33;6.70;;;20.60;56.00;;;;;;5002177;28;20431;-70
2023/05/25 11:18:50;;;;;;;10.20;6.23;;;21.20;56.70;;;;;;5001264;28;20450;-71
2023/05/25 11:21:39;;;;;;;13.27;6.97;;;21.30;56.10;;;;;;5000584;28;20505;-71
2023/05/25 11:24:15;;;;;;;9.13;6.50;;;21.70;56.70;;;;;;5000433;28;20447;-71
2023/05/25 11:26:54;;;;;;;7.93;7.13;;;22.30;55.60;;;;;;5001231;28;20457;-72
2023/05/25 11:29:24;;;;;;;10.57;7.13;;;23.40;55.60;;;;;;5002537;28;20837;-73
2023/05/25 11:31:54;;;;;;;8.53;7.33;;;24.50;54.50;;;;;;5001978;28;20427;-72
2023/05/25 11:34:27;;;;;;;9.30;6.43;;;25.70;52.50;;;;;;5001999;28;20434;-71
2023/05/25 11:37:00;;;;;;;7.27;6.07;;;26.30;48.40;;;;;;5001655;28;20984;-72
2023/05/25 11:39:29;;;;;;;12.27;7.40;;;25.90;49.20;;;;;;5002361;28;20850;-72
2023/05/25 11:42:03;;;;;;;8.13;7.03;;;25.70;46.30;;;;;;5002200;28;20477;-72
2023/05/25 11:44:33;;;;;;;9.53;6.20;;;24.50;47.60;;;;;;5001604;28;20442;-72
2023/05/25 11:47:04;;;;;;;8.87;7.57;;;24.30;50.40;;;;;;5002045;28;20434;-72
2023/05/25 11:49:40;;;;;;;10.07;7.00;;;23.90;50.00;;;;;;5001919;28;20467;-71
2023/05/25 11:52:09;;;;;;;11.47;9.00;;;23.10;50.10;;;;;;5001533;28;20435;-71
2023/05/25 11:54:39;;;;;;;9.00;7.00;;;22.30;51.50;;;;;;4999470;28;20454;-72
2023/05/25 11:57:15;;;;;;;10.33;6.93;;;22.20;55.20;;;;;;4995559;28;20466;-72
2023/05/25 11:59:49;;;;;;;10.57;7.17;;;22.30;52.10;;;;;;5009664;28;20465;-72
2023/05/25 12:02:18;;;;;;;9.10;7.30;;;22.40;52.40;;;;;;5012120;28;21022;-71
2023/05/25 12:04:54;;;;;;;8.00;7.30;;;22.50;53.00;;;;;;5005884;28;20482;-73
2023/05/25 12:07:23;;;;;;;10.37;6.83;;;22.80;54.50;;;;;;5005846;28;20527;-71
2023/05/25 12:09:51;;;;;;;10.90;6.87;;;23.20;54.00;;;;;;5007255;28;20827;-72
2023/05/25 12:12:19;;;;;;;9.80;7.60;;;23.20;50.80;;;;;;5012475;28;20517;-71
2023/05/25 12:14:48;;;;;;;8.97;7.70;;;23.00;51.90;;;;;;5026311;28;20445;-72
2023/05/25 12:17:16;;;;;;;9.37;7.23;;;22.60;51.30;;;;;;5009168;28;20497;-72
2023/05/25 12:19:45;;;;;;;10.00;6.70;;;22.50;51.80;;;;;;4998520;28;20970;-71
2023/05/25 12:22:15;;;;;;;9.77;6.90;;;23.00;51.50;;;;;;4991991;28;20518;-71
2023/05/25 12:24:43;;;;;;;8.90;6.93;;;23.50;50.20;;;;;;4996896;28;20937;-72
2023/05/25 12:27:17;;;;;;;10.50;7.03;;;23.30;50.40;;;;;;5010895;28;20490;-71
2023/05/25 12:29:47;;;;;;;9.10;7.37;;;23.10;54.60;;;;;;5004448;28;20431;-71
2023/05/25 12:32:15;;;;;;;12.87;7.50;;;23.20;51.10;;;;;;5010564;28;20452;-70
2023/05/25 12:34:43;;;;;;;7.73;6.97;;;22.80;51.30;;;;;;5009831;28;20811;-71
2023/05/25 12:37:19;;;;;;;9.03;6.73;;;22.80;52.90;;;;;;5010269;28;20509;-71
2023/05/25 12:39:49;;;;;;;10.80;7.00;;;22.90;52.80;;;;;;5009962;28;20445;-72
2023/05/25 12:42:18;;;;;;;7.67;6.87;;;23.00;50.70;;;;;;5010109;28;20473;-71
2023/05/25 12:44:47;;;;;;;10.00;7.07;;;22.80;51.40;;;;;;5010149;28;20476;-71
2023/05/25 12:47:18;;;;;;;12.83;8.57;;;22.50;52.80;;;;;;5009811;28;20462;-75
2023/05/25 12:49:50;;;;;;;12.97;7.23;;;22.60;51.90;;;;;;5006902;28;20522;-74
2023/05/25 12:52:36;;;;;;;10.60;7.40;;;22.90;51.50;;;;;;5000308;28;20493;-75
2023/05/25 12:55:21;;;;;;;10.80;6.97;;;22.90;54.60;;;;;;5001400;28;20884;-74
2023/05/25 12:57:51;;;;;;;9.40;7.07;;;22.60;52.70;;;;;;4991321;28;20470;-74
2023/05/25 13:00:20;;;;;;;12.90;7.50;;;22.70;52.30;;;;;;5004249;28;20449;-74